sensor_id;sensor_type;location;lat;lon;timestamp;temperature;humidity
11242;DHT22;5678;52.370;9.006;2022-08-20T00:00:56;20.40;99.90
11242;DHT22;5678;52.370;9.006;2022-08-20T00:03:30;20.40;99.90
11242;DHT22;5678;52.370;9.006;2022-08-20T00:06:00;20.50;99.90
11242;DHT22;5678;52.370;9.006;2022-08-20T00:08:29;20.40;99.90
11242;DHT22;5678;52.370;9.006;2022-08-20T00:10:58;20.50;99.90
11242;DHT22;5678;52.370;9.006;2022-08-20T00:13:30;20.40;99.90
11242;DHT22;5678;52.370;9.006;2022-08-20T00:15:59;20.40;99.90
11242;DHT22;5678;52.370;9.006;2022-08-20T00:18:27;20.40;99.90
11242;DHT22;5678;52.370;9.006;2022-08-20T00:20:56;20.50;99.90
11242;DHT22;5678;52.370;9.006;2022-08-20T00:23:24;20.30;99.90
11242;DHT22;5678;52.370;9.006;2022-08-20T00:25:52;20.30;99.90
11242;DHT22;5678;52.370;9.006;2022-08-20T00:28:20;20.30;99.90
11242;DHT22;5678;52.370;9.006;2022-08-20T00:30:50;20.30;99.90
11242;DHT22;5678;52.370;9.006;2022-08-20T00:33:21;20.30;99.90
11242;DHT22;5678;52.370;9.006;2022-08-20T00:35:51;20.40;99.90
11242;DHT22;5678;52.370;9.006;2022-08-20T00:38:20;20.30;99.90
11242;DHT22;5678;52.370;9.006;2022-08-20T00:40:51;20.20;99.90
11242;DHT22;5678;52.370;9.006;2022-08-20T00:43:28;20.10;99.90
11242;DHT22;5678;52.370;9.006;2022-08-20T00:45:58;20.20;99.90
11242;DHT22;5678;52.370;9.006;2022-08-20T00:48:29;20.20;99.90
11242;DHT22;5678;52.370;9.006;2022-08-20T00:51:03;20.10;99.90
11242;DHT22;5678;52.370;9.006;2022-08-20T00:53:32;20.20;99.90
11242;DHT22;5678;52.370;9.006;2022-08-20T00:56:02;20.30;99.90
11242;DHT22;5678;52.370;9.006;2022-08-20T00:58:31;20.10;99.90
11242;DHT22;5678;52.370;9.006;2022-08-20T01:01:01;20.10;99.90
11242;DHT22;5678;52.370;9.006;2022-08-20T01:03:30;20.10;99.90
11242;DHT22;5678;52.370;9.006;2022-08-20T01:05:58;20.10;99.90
11242;DHT22;5678;52.370;9.006;2022-08-20T01:08:27;20.10;99.90
11242;DHT22;5678;52.370;9.006;2022-08-20T01:10:55;20.10;99.90
11242;DHT22;5678;52.370;9.006;2022-08-20T01:13:35;20.10;99.90
11242;DHT22;5678;52.370;9.006;2022-08-20T01:16:12;20.10;99.90
11242;DHT22;5678;52.370;9.006;2022-08-20T01:18:44;20.10;99.90
11242;DHT22;5678;52.370;9.006;2022-08-20T01:21:14;20.10;99.90
11242;DHT22;5678;52.370;9.006;2022-08-20T01:23:47;20.10;99.90
11242;DHT22;5678;52.370;9.006;2022-08-20T01:26:21;20.10;99.90
11242;DHT22;5678;52.370;9.006;2022-08-20T01:28:51;20.10;99.90
11242;DHT22;5678;52.370;9.006;2022-08-20T01:31:22;20.10;99.90
11242;DHT22;5678;52.370;9.006;2022-08-20T01:33:51;20.20;99.90
11242;DHT22;5678;52.370;9.006;2022-08-20T01:36:23;20.20;99.90
11242;DHT22;5678;52.370;9.006;2022-08-20T01:38:51;20.10;99.90
11242;DHT22;5678;52.370;9.006;2022-08-20T01:41:46;20.20;99.90
11242;DHT22;5678;52.370;9.006;2022-08-20T01:44:19;20.20;99.90
11242;DHT22;5678;52.370;9.006;2022-08-20T01:46:52;20.10;99.90
11242;DHT22;5678;52.370;9.006;2022-08-20T01:49:27;20.10;99.90
11242;DHT22;5678;52.370;9.006;2022-08-20T01:51:59;20.20;99.90
11242;DHT22;5678;52.370;9.006;2022-08-20T01:54:27;20.10;99.90
11242;DHT22;5678;52.370;9.006;2022-08-20T01:57:00;20.10;99.90
11242;DHT22;5678;52.370;9.006;2022-08-20T01:59:31;20.10;99.90
11242;DHT22;5678;52.370;9.006;2022-08-20T02:02:00;20.10;99.90
11242;DHT22;5678;52.370;9.006;2022-08-20T02:04:28;20.00;99.90
11242;DHT22;5678;52.370;9.006;2022-08-20T02:06:59;20.00;99.90
11242;DHT22;5678;52.370;9.006;2022-08-20T02:09:29;19.90;99.90
11242;DHT22;5678;52.370;9.006;2022-08-20T02:11:59;19.90;99.90
11242;DHT22;5678;52.370;9.006;2022-08-20T02:14:29;20.00;99.90
11242;DHT22;5678;52.370;9.006;2022-08-20T02:16:58;19.80;99.90
11242;DHT22;5678;52.370;9.006;2022-08-20T02:19:29;19.80;99.90
11242;DHT22;5678;52.370;9.006;2022-08-20T02:22:02;19.80;99.90
11242;DHT22;5678;52.370;9.006;2022-08-20T02:24:31;19.80;99.90
11242;DHT22;5678;52.370;9.006;2022-08-20T02:27:02;19.70;99.90
11242;DHT22;5678;52.370;9.006;2022-08-20T02:29:30;19.60;99.90
11242;DHT22;5678;52.370;9.006;2022-08-20T02:31:59;19.60;99.90
11242;DHT22;5678;52.370;9.006;2022-08-20T02:34:47;19.50;99.90
11242;DHT22;5678;52.370;9.006;2022-08-20T02:37:15;19.50;99.90
11242;DHT22;5678;52.370;9.006;2022-08-20T02:39:44;19.50;99.90
11242;DHT22;5678;52.370;9.006;2022-08-20T02:42:13;19.50;99.90
11242;DHT22;5678;52.370;9.006;2022-08-20T02:44:42;19.50;99.90
11242;DHT22;5678;52.370;9.006;2022-08-20T02:47:10;19.40;99.90
11242;DHT22;5678;52.370;9.006;2022-08-20T02:49:38;19.30;99.90
11242;DHT22;5678;52.370;9.006;2022-08-20T02:52:06;19.40;99.90
11242;DHT22;5678;52.370;9.006;2022-08-20T02:54:34;19.40;99.90
11242;DHT22;5678;52.370;9.006;2022-08-20T02:57:03;19.30;99.90
11242;DHT22;5678;52.370;9.006;2022-08-20T02:59:32;19.40;99.90
11242;DHT22;5678;52.370;9.006;2022-08-20T03:02:00;19.30;99.90
11242;DHT22;5678;52.370;9.006;2022-08-20T03:04:28;19.30;99.90
11242;DHT22;5678;52.370;9.006;2022-08-20T03:06:57;19.30;99.90
11242;DHT22;5678;52.370;9.006;2022-08-20T03:09:25;19.30;99.90
11242;DHT22;5678;52.370;9.006;2022-08-20T03:11:53;19.30;99.90
11242;DHT22;5678;52.370;9.006;2022-08-20T03:14:21;19.20;99.90
11242;DHT22;5678;52.370;9.006;2022-08-20T03:16:51;19.30;99.90
11242;DHT22;5678;52.370;9.006;2022-08-20T03:19:19;19.20;99.90
11242;DHT22;5678;52.370;9.006;2022-08-20T03:21:48;19.10;99.90
11242;DHT22;5678;52.370;9.006;2022-08-20T03:24:16;19.20;99.90
11242;DHT22;5678;52.370;9.006;2022-08-20T03:26:44;19.20;99.90
11242;DHT22;5678;52.370;9.006;2022-08-20T03:29:12;19.20;99.90
11242;DHT22;5678;52.370;9.006;2022-08-20T03:31:40;19.20;99.90
11242;DHT22;5678;52.370;9.006;2022-08-20T03:34:10;19.20;99.90
11242;DHT22;5678;52.370;9.006;2022-08-20T03:36:38;19.10;99.90
11242;DHT22;5678;52.370;9.006;2022-08-20T03:39:07;19.10;99.90
11242;DHT22;5678;52.370;9.006;2022-08-20T03:41:38;19.10;99.90
11242;DHT22;5678;52.370;9.006;2022-08-20T03:44:06;19.10;99.90
11242;DHT22;5678;52.370;9.006;2022-08-20T03:46:35;19.10;99.90
11242;DHT22;5678;52.370;9.006;2022-08-20T03:49:04;19.10;99.90
11242;DHT22;5678;52.370;9.006;2022-08-20T03:51:33;19.10;99.90
11242;DHT22;5678;52.370;9.006;2022-08-20T03:54:21;19.10;99.90
11242;DHT22;5678;52.370;9.006;2022-08-20T03:56:54;19.10;99.90
11242;DHT22;5678;52.370;9.006;2022-08-20T03:59:23;19.10;99.90
11242;DHT22;5678;52.370;9.006;2022-08-20T04:01:51;19.10;99.90
11242;DHT22;5678;52.370;9.006;2022-08-20T04:04:19;19.10;99.90
11242;DHT22;5678;52.370;9.006;2022-08-20T04:06:49;19.10;99.90
11242;DHT22;5678;52.370;9.006;2022-08-20T04:09:17;19.10;99.90
11242;DHT22;5678;52.370;9.006;2022-08-20T04:11:45;19.10;99.90
11242;DHT22;5678;52.370;9.006;2022-08-20T04:14:13;19.10;99.90
11242;DHT22;5678;52.370;9.006;2022-08-20T04:16:45;19.10;99.90
11242;DHT22;5678;52.370;9.006;2022-08-20T04:19:15;19.10;99.90
11242;DHT22;5678;52.370;9.006;2022-08-20T04:21:43;19.10;99.90
11242;DHT22;5678;52.370;9.006;2022-08-20T04:24:15;19.10;99.90
11242;DHT22;5678;52.370;9.006;2022-08-20T04:26:58;19.10;99.90
11242;DHT22;5678;52.370;9.006;2022-08-20T04:29:29;19.10;99.90
11242;DHT22;5678;52.370;9.006;2022-08-20T04:31:58;19.20;99.90
11242;DHT22;5678;52.370;9.006;2022-08-20T04:34:32;19.10;99.90
11242;DHT22;5678;52.370;9.006;2022-08-20T04:37:00;19.10;99.90
11242;DHT22;5678;52.370;9.006;2022-08-20T04:39:30;18.90;99.90
11242;DHT22;5678;52.370;9.006;2022-08-20T04:41:58;19.00;99.90
11242;DHT22;5678;52.370;9.006;2022-08-20T04:44:25;18.90;99.90
11242;DHT22;5678;52.370;9.006;2022-08-20T04:46:53;19.00;99.90
11242;DHT22;5678;52.370;9.006;2022-08-20T04:49:21;18.90;99.90
11242;DHT22;5678;52.370;9.006;2022-08-20T04:51:52;19.00;99.90
11242;DHT22;5678;52.370;9.006;2022-08-20T04:54:20;19.00;99.90
11242;DHT22;5678;52.370;9.006;2022-08-20T04:56:49;19.00;99.90
11242;DHT22;5678;52.370;9.006;2022-08-20T04:59:18;19.00;99.90
11242;DHT22;5678;52.370;9.006;2022-08-20T05:01:46;19.00;99.90
11242;DHT22;5678;52.370;9.006;2022-08-20T05:04:14;19.00;99.90
11242;DHT22;5678;52.370;9.006;2022-08-20T05:06:41;19.00;99.90
11242;DHT22;5678;52.370;9.006;2022-08-20T05:09:10;19.10;99.90
11242;DHT22;5678;52.370;9.006;2022-08-20T05:11:37;19.10;99.90
11242;DHT22;5678;52.370;9.006;2022-08-20T05:14:07;19.10;99.90
11242;DHT22;5678;52.370;9.006;2022-08-20T05:16:36;19.10;99.90
11242;DHT22;5678;52.370;9.006;2022-08-20T05:19:05;19.10;99.90
11242;DHT22;5678;52.370;9.006;2022-08-20T05:21:34;19.20;99.90
11242;DHT22;5678;52.370;9.006;2022-08-20T05:24:03;19.10;99.90
11242;DHT22;5678;52.370;9.006;2022-08-20T05:26:31;19.20;99.90
11242;DHT22;5678;52.370;9.006;2022-08-20T05:28:59;19.20;99.90
11242;DHT22;5678;52.370;9.006;2022-08-20T05:31:31;19.30;99.90
11242;DHT22;5678;52.370;9.006;2022-08-20T05:34:00;19.30;99.90
11242;DHT22;5678;52.370;9.006;2022-08-20T05:36:28;19.30;99.90
11242;DHT22;5678;52.370;9.006;2022-08-20T05:38:56;19.30;99.90
11242;DHT22;5678;52.370;9.006;2022-08-20T05:41:25;19.30;99.90
11242;DHT22;5678;52.370;9.006;2022-08-20T05:43:56;19.30;99.90
11242;DHT22;5678;52.370;9.006;2022-08-20T05:46:26;19.30;99.90
11242;DHT22;5678;52.370;9.006;2022-08-20T05:48:55;19.30;99.90
11242;DHT22;5678;52.370;9.006;2022-08-20T05:51:25;19.30;99.90
11242;DHT22;5678;52.370;9.006;2022-08-20T05:53:54;19.20;99.90
11242;DHT22;5678;52.370;9.006;2022-08-20T05:56:26;19.20;99.90
11242;DHT22;5678;52.370;9.006;2022-08-20T05:58:57;19.20;99.90
11242;DHT22;5678;52.370;9.006;2022-08-20T06:01:26;19.20;99.90
11242;DHT22;5678;52.370;9.006;2022-08-20T06:03:56;19.20;99.90
11242;DHT22;5678;52.370;9.006;2022-08-20T06:06:41;19.30;99.90
11242;DHT22;5678;52.370;9.006;2022-08-20T06:09:13;19.30;99.90
11242;DHT22;5678;52.370;9.006;2022-08-20T06:11:41;19.40;99.90
11242;DHT22;5678;52.370;9.006;2022-08-20T06:14:09;19.40;99.90
11242;DHT22;5678;52.370;9.006;2022-08-20T06:16:37;19.30;99.90
11242;DHT22;5678;52.370;9.006;2022-08-20T06:19:24;19.40;99.90
11242;DHT22;5678;52.370;9.006;2022-08-20T06:21:58;19.40;99.90
11242;DHT22;5678;52.370;9.006;2022-08-20T06:24:26;19.40;99.90
11242;DHT22;5678;52.370;9.006;2022-08-20T06:26:55;19.40;99.90
11242;DHT22;5678;52.370;9.006;2022-08-20T06:29:23;19.50;99.90
11242;DHT22;5678;52.370;9.006;2022-08-20T06:31:51;19.50;99.90
11242;DHT22;5678;52.370;9.006;2022-08-20T06:34:19;19.30;99.90
11242;DHT22;5678;52.370;9.006;2022-08-20T06:36:49;19.50;99.90
11242;DHT22;5678;52.370;9.006;2022-08-20T06:39:17;19.50;99.90
11242;DHT22;5678;52.370;9.006;2022-08-20T06:41:44;19.50;99.90
11242;DHT22;5678;52.370;9.006;2022-08-20T06:44:13;19.50;99.90
11242;DHT22;5678;52.370;9.006;2022-08-20T06:46:42;19.50;99.90
11242;DHT22;5678;52.370;9.006;2022-08-20T06:49:11;19.60;99.90
11242;DHT22;5678;52.370;9.006;2022-08-20T06:51:39;19.60;99.90
11242;DHT22;5678;52.370;9.006;2022-08-20T06:54:08;19.70;99.90
11242;DHT22;5678;52.370;9.006;2022-08-20T06:56:36;19.50;99.90
11242;DHT22;5678;52.370;9.006;2022-08-20T06:59:04;19.60;99.90
11242;DHT22;5678;52.370;9.006;2022-08-20T07:01:32;19.60;99.90
11242;DHT22;5678;52.370;9.006;2022-08-20T07:04:01;19.50;99.90
11242;DHT22;5678;52.370;9.006;2022-08-20T07:06:30;19.60;99.90
11242;DHT22;5678;52.370;9.006;2022-08-20T07:08:58;19.70;99.90
11242;DHT22;5678;52.370;9.006;2022-08-20T07:11:28;19.70;99.90
11242;DHT22;5678;52.370;9.006;2022-08-20T07:13:56;19.80;99.90
11242;DHT22;5678;52.370;9.006;2022-08-20T07:16:25;19.70;99.90
11242;DHT22;5678;52.370;9.006;2022-08-20T07:18:53;19.80;99.90
11242;DHT22;5678;52.370;9.006;2022-08-20T07:21:21;19.90;99.90
11242;DHT22;5678;52.370;9.006;2022-08-20T07:23:49;19.90;99.90
11242;DHT22;5678;52.370;9.006;2022-08-20T07:26:17;20.00;99.90
11242;DHT22;5678;52.370;9.006;2022-08-20T07:28:46;19.90;99.90
11242;DHT22;5678;52.370;9.006;2022-08-20T07:31:15;20.00;99.90
11242;DHT22;5678;52.370;9.006;2022-08-20T07:34:01;20.10;99.90
11242;DHT22;5678;52.370;9.006;2022-08-20T07:36:29;20.10;99.90
11242;DHT22;5678;52.370;9.006;2022-08-20T07:38:57;20.20;99.90
11242;DHT22;5678;52.370;9.006;2022-08-20T07:41:31;20.20;99.90
11242;DHT22;5678;52.370;9.006;2022-08-20T07:44:01;20.30;99.90
11242;DHT22;5678;52.370;9.006;2022-08-20T07:46:30;20.30;99.90
11242;DHT22;5678;52.370;9.006;2022-08-20T07:48:58;20.30;99.90
11242;DHT22;5678;52.370;9.006;2022-08-20T07:51:26;20.40;99.90
11242;DHT22;5678;52.370;9.006;2022-08-20T07:53:55;20.30;99.90
11242;DHT22;5678;52.370;9.006;2022-08-20T07:56:24;20.30;99.90
11242;DHT22;5678;52.370;9.006;2022-08-20T07:58:54;20.30;99.90
11242;DHT22;5678;52.370;9.006;2022-08-20T08:01:28;20.30;99.90
11242;DHT22;5678;52.370;9.006;2022-08-20T08:03:57;20.30;99.90
11242;DHT22;5678;52.370;9.006;2022-08-20T08:06:26;20.20;99.90
11242;DHT22;5678;52.370;9.006;2022-08-20T08:09:01;20.20;99.90
11242;DHT22;5678;52.370;9.006;2022-08-20T08:11:31;20.10;99.90
11242;DHT22;5678;52.370;9.006;2022-08-20T08:14:00;20.00;99.90
11242;DHT22;5678;52.370;9.006;2022-08-20T08:16:30;19.80;99.90
11242;DHT22;5678;52.370;9.006;2022-08-20T08:19:00;19.80;99.90
11242;DHT22;5678;52.370;9.006;2022-08-20T08:21:29;19.80;99.90
11242;DHT22;5678;52.370;9.006;2022-08-20T08:23:57;19.80;99.90
11242;DHT22;5678;52.370;9.006;2022-08-20T08:26:25;19.80;99.90
11242;DHT22;5678;52.370;9.006;2022-08-20T08:28:54;19.70;99.90
11242;DHT22;5678;52.370;9.006;2022-08-20T08:31:24;19.70;99.90
11242;DHT22;5678;52.370;9.006;2022-08-20T08:33:53;19.80;99.90
11242;DHT22;5678;52.370;9.006;2022-08-20T08:36:21;19.70;99.90
11242;DHT22;5678;52.370;9.006;2022-08-20T08:38:52;19.70;99.90
11242;DHT22;5678;52.370;9.006;2022-08-20T08:41:27;19.80;99.90
11242;DHT22;5678;52.370;9.006;2022-08-20T08:44:03;19.80;99.90
11242;DHT22;5678;52.370;9.006;2022-08-20T08:46:37;19.80;99.90
11242;DHT22;5678;52.370;9.006;2022-08-20T08:49:10;19.90;99.90
11242;DHT22;5678;52.370;9.006;2022-08-20T08:51:41;20.00;99.90
11242;DHT22;5678;52.370;9.006;2022-08-20T08:54:14;20.00;99.90
11242;DHT22;5678;52.370;9.006;2022-08-20T08:56:43;20.00;99.90
11242;DHT22;5678;52.370;9.006;2022-08-20T08:59:17;20.10;99.90
11242;DHT22;5678;52.370;9.006;2022-08-20T09:01:50;20.00;99.90
11242;DHT22;5678;52.370;9.006;2022-08-20T09:04:28;20.10;99.90
11242;DHT22;5678;52.370;9.006;2022-08-20T09:06:58;20.20;99.90
11242;DHT22;5678;52.370;9.006;2022-08-20T09:09:30;20.20;99.90
11242;DHT22;5678;52.370;9.006;2022-08-20T09:12:03;20.20;99.90
11242;DHT22;5678;52.370;9.006;2022-08-20T09:14:31;20.20;99.90
11242;DHT22;5678;52.370;9.006;2022-08-20T09:16:59;20.10;99.90
11242;DHT22;5678;52.370;9.006;2022-08-20T09:19:29;20.10;99.90
11242;DHT22;5678;52.370;9.006;2022-08-20T09:21:57;20.20;99.90
11242;DHT22;5678;52.370;9.006;2022-08-20T09:24:25;20.20;99.90
11242;DHT22;5678;52.370;9.006;2022-08-20T09:26:53;20.40;99.90
11242;DHT22;5678;52.370;9.006;2022-08-20T09:29:21;20.60;99.90
11242;DHT22;5678;52.370;9.006;2022-08-20T09:31:49;20.80;99.90
11242;DHT22;5678;52.370;9.006;2022-08-20T09:34:18;21.00;99.90
11242;DHT22;5678;52.370;9.006;2022-08-20T09:36:47;21.20;99.90
11242;DHT22;5678;52.370;9.006;2022-08-20T09:39:15;21.40;99.90
11242;DHT22;5678;52.370;9.006;2022-08-20T09:41:43;21.50;99.90
11242;DHT22;5678;52.370;9.006;2022-08-20T09:44:11;21.60;99.90
11242;DHT22;5678;52.370;9.006;2022-08-20T09:46:38;21.70;99.90
11242;DHT22;5678;52.370;9.006;2022-08-20T09:49:06;22.00;99.90
11242;DHT22;5678;52.370;9.006;2022-08-20T09:51:36;22.10;99.90
11242;DHT22;5678;52.370;9.006;2022-08-20T09:54:06;22.30;99.90
11242;DHT22;5678;52.370;9.006;2022-08-20T09:56:34;22.70;99.90
11242;DHT22;5678;52.370;9.006;2022-08-20T09:59:02;23.00;99.90
11242;DHT22;5678;52.370;9.006;2022-08-20T10:01:30;23.10;99.90
11242;DHT22;5678;52.370;9.006;2022-08-20T10:03:58;23.20;99.90
11242;DHT22;5678;52.370;9.006;2022-08-20T10:06:26;23.20;99.90
11242;DHT22;5678;52.370;9.006;2022-08-20T10:08:54;23.20;99.90
11242;DHT22;5678;52.370;9.006;2022-08-20T10:11:24;23.10;99.90
11242;DHT22;5678;52.370;9.006;2022-08-20T10:13:55;23.30;99.90
11242;DHT22;5678;52.370;9.006;2022-08-20T10:16:24;23.30;99.90
11242;DHT22;5678;52.370;9.006;2022-08-20T10:18:51;23.30;99.90
11242;DHT22;5678;52.370;9.006;2022-08-20T10:21:20;23.40;99.90
11242;DHT22;5678;52.370;9.006;2022-08-20T10:23:47;23.40;99.90
11242;DHT22;5678;52.370;9.006;2022-08-20T10:26:15;23.50;99.90
11242;DHT22;5678;52.370;9.006;2022-08-20T10:28:45;23.60;99.90
11242;DHT22;5678;52.370;9.006;2022-08-20T10:31:13;23.50;99.90
11242;DHT22;5678;52.370;9.006;2022-08-20T10:33:42;23.40;99.90
11242;DHT22;5678;52.370;9.006;2022-08-20T10:36:12;23.40;99.90
11242;DHT22;5678;52.370;9.006;2022-08-20T10:38:41;23.40;99.90
11242;DHT22;5678;52.370;9.006;2022-08-20T10:41:10;23.50;99.90
11242;DHT22;5678;52.370;9.006;2022-08-20T10:43:38;23.50;99.90
11242;DHT22;5678;52.370;9.006;2022-08-20T10:46:07;23.50;99.90
11242;DHT22;5678;52.370;9.006;2022-08-20T10:48:35;23.70;99.90
11242;DHT22;5678;52.370;9.006;2022-08-20T10:51:03;23.90;99.90
11242;DHT22;5678;52.370;9.006;2022-08-20T10:53:31;23.90;99.90
11242;DHT22;5678;52.370;9.006;2022-08-20T10:55:59;23.90;99.90
11242;DHT22;5678;52.370;9.006;2022-08-20T10:58:27;24.10;99.90
11242;DHT22;5678;52.370;9.006;2022-08-20T11:01:07;24.20;99.90
11242;DHT22;5678;52.370;9.006;2022-08-20T11:03:35;24.60;99.90
11242;DHT22;5678;52.370;9.006;2022-08-20T11:06:03;24.80;99.90
11242;DHT22;5678;52.370;9.006;2022-08-20T11:08:31;24.90;99.90
11242;DHT22;5678;52.370;9.006;2022-08-20T11:11:02;24.90;99.90
11242;DHT22;5678;52.370;9.006;2022-08-20T11:13:31;24.90;99.90
11242;DHT22;5678;52.370;9.006;2022-08-20T11:15:59;24.80;99.90
11242;DHT22;5678;52.370;9.006;2022-08-20T11:18:29;24.60;99.90
11242;DHT22;5678;52.370;9.006;2022-08-20T11:20:57;24.50;99.90
11242;DHT22;5678;52.370;9.006;2022-08-20T11:23:25;24.70;99.90
11242;DHT22;5678;52.370;9.006;2022-08-20T11:25:56;25.10;99.90
11242;DHT22;5678;52.370;9.006;2022-08-20T11:28:24;25.50;99.90
11242;DHT22;5678;52.370;9.006;2022-08-20T11:30:58;25.70;99.90
11242;DHT22;5678;52.370;9.006;2022-08-20T11:33:26;25.70;99.90
11242;DHT22;5678;52.370;9.006;2022-08-20T11:35:56;25.60;99.90
11242;DHT22;5678;52.370;9.006;2022-08-20T11:38:24;25.50;99.90
11242;DHT22;5678;52.370;9.006;2022-08-20T11:40:52;25.40;99.90
11242;DHT22;5678;52.370;9.006;2022-08-20T11:43:20;25.40;99.90
11242;DHT22;5678;52.370;9.006;2022-08-20T11:45:49;25.50;99.90
11242;DHT22;5678;52.370;9.006;2022-08-20T11:48:19;25.80;99.90
11242;DHT22;5678;52.370;9.006;2022-08-20T11:50:47;25.80;99.90
11242;DHT22;5678;52.370;9.006;2022-08-20T11:53:17;25.80;99.90
11242;DHT22;5678;52.370;9.006;2022-08-20T11:55:45;25.80;99.90
11242;DHT22;5678;52.370;9.006;2022-08-20T11:58:13;25.80;99.90
11242;DHT22;5678;52.370;9.006;2022-08-20T12:00:41;25.60;99.90
11242;DHT22;5678;52.370;9.006;2022-08-20T12:03:10;25.40;99.90
11242;DHT22;5678;52.370;9.006;2022-08-20T12:05:39;25.30;99.90
11242;DHT22;5678;52.370;9.006;2022-08-20T12:08:08;25.30;99.90
11242;DHT22;5678;52.370;9.006;2022-08-20T12:10:52;25.20;99.90
11242;DHT22;5678;52.370;9.006;2022-08-20T12:13:20;25.30;99.90
11242;DHT22;5678;52.370;9.006;2022-08-20T12:16:02;25.40;99.90
11242;DHT22;5678;52.370;9.006;2022-08-20T12:18:30;25.60;99.90
11242;DHT22;5678;52.370;9.006;2022-08-20T12:20:58;25.70;99.90
11242;DHT22;5678;52.370;9.006;2022-08-20T12:23:26;25.90;99.90
11242;DHT22;5678;52.370;9.006;2022-08-20T12:25:55;26.00;99.90
11242;DHT22;5678;52.370;9.006;2022-08-20T12:28:25;25.90;99.90
11242;DHT22;5678;52.370;9.006;2022-08-20T12:30:52;25.90;99.90
11242;DHT22;5678;52.370;9.006;2022-08-20T12:33:20;26.10;99.90
11242;DHT22;5678;52.370;9.006;2022-08-20T12:35:48;26.30;99.90
11242;DHT22;5678;52.370;9.006;2022-08-20T12:38:16;26.60;99.90
11242;DHT22;5678;52.370;9.006;2022-08-20T12:40:44;26.80;99.90
11242;DHT22;5678;52.370;9.006;2022-08-20T12:43:13;26.90;99.90
11242;DHT22;5678;52.370;9.006;2022-08-20T12:45:41;27.00;99.90
11242;DHT22;5678;52.370;9.006;2022-08-20T12:48:11;26.90;99.90
11242;DHT22;5678;52.370;9.006;2022-08-20T12:50:41;26.90;99.90
11242;DHT22;5678;52.370;9.006;2022-08-20T12:53:11;26.80;99.90
11242;DHT22;5678;52.370;9.006;2022-08-20T12:55:39;26.70;99.90
11242;DHT22;5678;52.370;9.006;2022-08-20T12:58:09;26.70;99.90
11242;DHT22;5678;52.370;9.006;2022-08-20T13:00:40;26.60;99.90
11242;DHT22;5678;52.370;9.006;2022-08-20T13:03:14;26.80;99.90
11242;DHT22;5678;52.370;9.006;2022-08-20T13:05:42;26.80;99.90
11242;DHT22;5678;52.370;9.006;2022-08-20T13:08:11;26.80;99.90
11242;DHT22;5678;52.370;9.006;2022-08-20T13:10:41;27.00;99.90
11242;DHT22;5678;52.370;9.006;2022-08-20T13:13:11;27.20;99.90
11242;DHT22;5678;52.370;9.006;2022-08-20T13:15:40;27.20;99.90
11242;DHT22;5678;52.370;9.006;2022-08-20T13:18:08;26.90;99.90
11242;DHT22;5678;52.370;9.006;2022-08-20T13:20:36;26.60;99.90
11242;DHT22;5678;52.370;9.006;2022-08-20T13:23:04;26.50;99.90
11242;DHT22;5678;52.370;9.006;2022-08-20T13:25:33;26.40;99.90
11242;DHT22;5678;52.370;9.006;2022-08-20T13:28:02;26.50;99.90
11242;DHT22;5678;52.370;9.006;2022-08-20T13:30:31;26.60;99.90
11242;DHT22;5678;52.370;9.006;2022-08-20T13:33:01;26.70;99.90
11242;DHT22;5678;52.370;9.006;2022-08-20T13:35:29;26.70;99.90
11242;DHT22;5678;52.370;9.006;2022-08-20T13:37:57;27.00;99.90
11242;DHT22;5678;52.370;9.006;2022-08-20T13:40:26;27.20;99.90
11242;DHT22;5678;52.370;9.006;2022-08-20T13:42:55;27.30;99.90
11242;DHT22;5678;52.370;9.006;2022-08-20T13:45:23;27.50;99.90
11242;DHT22;5678;52.370;9.006;2022-08-20T13:47:53;27.40;99.90
11242;DHT22;5678;52.370;9.006;2022-08-20T13:50:24;27.40;99.90
11242;DHT22;5678;52.370;9.006;2022-08-20T13:52:52;27.10;99.90
11242;DHT22;5678;52.370;9.006;2022-08-20T13:55:24;26.90;99.90
11242;DHT22;5678;52.370;9.006;2022-08-20T13:57:53;26.60;99.90
11242;DHT22;5678;52.370;9.006;2022-08-20T14:00:24;26.60;99.90
11242;DHT22;5678;52.370;9.006;2022-08-20T14:02:57;26.70;99.90
11242;DHT22;5678;52.370;9.006;2022-08-20T14:05:27;26.70;99.90
11242;DHT22;5678;52.370;9.006;2022-08-20T14:08:02;26.70;99.90
11242;DHT22;5678;52.370;9.006;2022-08-20T14:10:30;26.80;99.90
11242;DHT22;5678;52.370;9.006;2022-08-20T14:12:58;26.70;99.90
11242;DHT22;5678;52.370;9.006;2022-08-20T14:15:26;26.80;99.90
11242;DHT22;5678;52.370;9.006;2022-08-20T14:17:55;26.80;99.90
11242;DHT22;5678;52.370;9.006;2022-08-20T14:20:28;26.90;99.90
11242;DHT22;5678;52.370;9.006;2022-08-20T14:22:58;26.60;99.90
11242;DHT22;5678;52.370;9.006;2022-08-20T14:25:28;26.40;99.90
11242;DHT22;5678;52.370;9.006;2022-08-20T14:27:57;26.30;99.90
11242;DHT22;5678;52.370;9.006;2022-08-20T14:30:27;26.20;99.90
11242;DHT22;5678;52.370;9.006;2022-08-20T14:32:55;26.30;99.90
11242;DHT22;5678;52.370;9.006;2022-08-20T14:35:24;26.40;99.90
11242;DHT22;5678;52.370;9.006;2022-08-20T14:37:54;26.50;99.90
11242;DHT22;5678;52.370;9.006;2022-08-20T14:40:23;26.40;99.90
11242;DHT22;5678;52.370;9.006;2022-08-20T14:42:52;26.40;99.90
11242;DHT22;5678;52.370;9.006;2022-08-20T14:45:21;26.30;99.90
11242;DHT22;5678;52.370;9.006;2022-08-20T14:47:51;26.30;99.90
11242;DHT22;5678;52.370;9.006;2022-08-20T14:50:22;26.40;99.90
11242;DHT22;5678;52.370;9.006;2022-08-20T14:52:53;26.50;99.90
11242;DHT22;5678;52.370;9.006;2022-08-20T14:55:23;26.60;99.90
11242;DHT22;5678;52.370;9.006;2022-08-20T14:57:51;26.70;99.90
11242;DHT22;5678;52.370;9.006;2022-08-20T15:00:23;26.80;99.90
11242;DHT22;5678;52.370;9.006;2022-08-20T15:02:51;26.80;99.90
11242;DHT22;5678;52.370;9.006;2022-08-20T15:05:19;26.80;99.90
11242;DHT22;5678;52.370;9.006;2022-08-20T15:07:50;26.80;99.90
11242;DHT22;5678;52.370;9.006;2022-08-20T15:10:23;26.70;99.90
11242;DHT22;5678;52.370;9.006;2022-08-20T15:12:51;26.60;99.90
11242;DHT22;5678;52.370;9.006;2022-08-20T15:15:19;26.60;99.90
11242;DHT22;5678;52.370;9.006;2022-08-20T15:17:50;26.40;99.90
11242;DHT22;5678;52.370;9.006;2022-08-20T15:20:20;26.20;99.90
11242;DHT22;5678;52.370;9.006;2022-08-20T15:22:49;26.10;99.90
11242;DHT22;5678;52.370;9.006;2022-08-20T15:25:21;26.10;99.90
11242;DHT22;5678;52.370;9.006;2022-08-20T15:27:50;26.10;99.90
11242;DHT22;5678;52.370;9.006;2022-08-20T15:30:20;26.20;99.90
11242;DHT22;5678;52.370;9.006;2022-08-20T15:32:48;26.10;99.90
11242;DHT22;5678;52.370;9.006;2022-08-20T15:35:21;26.30;99.90
11242;DHT22;5678;52.370;9.006;2022-08-20T15:37:49;26.30;99.90
11242;DHT22;5678;52.370;9.006;2022-08-20T15:40:23;26.30;99.90
11242;DHT22;5678;52.370;9.006;2022-08-20T15:42:54;26.40;99.90
11242;DHT22;5678;52.370;9.006;2022-08-20T15:45:22;26.50;99.90
11242;DHT22;5678;52.370;9.006;2022-08-20T15:47:53;26.50;99.90
11242;DHT22;5678;52.370;9.006;2022-08-20T15:50:37;26.40;99.90
11242;DHT22;5678;52.370;9.006;2022-08-20T15:53:10;26.30;99.90
11242;DHT22;5678;52.370;9.006;2022-08-20T15:55:45;26.10;99.90
11242;DHT22;5678;52.370;9.006;2022-08-20T15:58:21;26.10;99.90
11242;DHT22;5678;52.370;9.006;2022-08-20T16:00:54;26.00;99.90